sensor_id;sensor_type;location;lat;lon;timestamp;P1;durP1;ratioP1;P2;durP2;ratioP2
19525;SDS011;9907;42.676;26.348;2024-03-07T00:02:19;14.87;;;10.43;;
19525;SDS011;9907;42.676;26.348;2024-03-07T00:04:45;16.00;;;10.50;;
19525;SDS011;9907;42.676;26.348;2024-03-07T00:07:10;17.70;;;11.47;;
19525;SDS011;9907;42.676;26.348;2024-03-07T00:09:36;14.47;;;10.90;;
19525;SDS011;9907;42.676;26.348;2024-03-07T00:12:02;16.07;;;11.23;;
19525;SDS011;9907;42.676;26.348;2024-03-07T00:14:29;18.30;;;11.20;;
19525;SDS011;9907;42.676;26.348;2024-03-07T00:16:57;13.53;;;11.10;;
19525;SDS011;9907;42.676;26.348;2024-03-07T00:19:24;12.27;;;10.87;;
19525;SDS011;9907;42.676;26.348;2024-03-07T00:21:55;16.40;;;10.87;;
19525;SDS011;9907;42.676;26.348;2024-03-07T00:24:21;12.47;;;10.53;;
19525;SDS011;9907;42.676;26.348;2024-03-07T00:26:48;13.50;;;10.80;;
19525;SDS011;9907;42.676;26.348;2024-03-07T00:29:16;14.00;;;10.30;;
19525;SDS011;9907;42.676;26.348;2024-03-07T00:31:46;11.87;;;10.13;;
19525;SDS011;9907;42.676;26.348;2024-03-07T00:34:12;13.03;;;10.60;;
19525;SDS011;9907;42.676;26.348;2024-03-07T00:36:44;15.03;;;10.73;;
19525;SDS011;9907;42.676;26.348;2024-03-07T00:39:11;17.23;;;11.03;;
19525;SDS011;9907;42.676;26.348;2024-03-07T00:41:37;14.60;;;11.43;;
19525;SDS011;9907;42.676;26.348;2024-03-07T00:44:04;12.97;;;10.13;;
19525;SDS011;9907;42.676;26.348;2024-03-07T00:46:29;14.30;;;10.53;;
19525;SDS011;9907;42.676;26.348;2024-03-07T00:48:55;13.30;;;11.13;;
19525;SDS011;9907;42.676;26.348;2024-03-07T00:51:20;14.83;;;10.70;;
19525;SDS011;9907;42.676;26.348;2024-03-07T00:53:45;13.70;;;11.20;;
19525;SDS011;9907;42.676;26.348;2024-03-07T00:56:12;15.87;;;11.87;;
19525;SDS011;9907;42.676;26.348;2024-03-07T00:58:38;13.90;;;10.63;;
19525;SDS011;9907;42.676;26.348;2024-03-07T01:01:03;13.20;;;10.30;;
19525;SDS011;9907;42.676;26.348;2024-03-07T01:03:28;16.93;;;11.67;;
19525;SDS011;9907;42.676;26.348;2024-03-07T01:05:54;17.03;;;10.83;;
19525;SDS011;9907;42.676;26.348;2024-03-07T01:08:19;13.60;;;11.50;;
19525;SDS011;9907;42.676;26.348;2024-03-07T01:10:45;14.73;;;12.07;;
19525;SDS011;9907;42.676;26.348;2024-03-07T01:13:10;15.83;;;11.67;;
19525;SDS011;9907;42.676;26.348;2024-03-07T01:15:44;14.40;;;12.30;;
19525;SDS011;9907;42.676;26.348;2024-03-07T01:18:10;13.53;;;11.17;;
19525;SDS011;9907;42.676;26.348;2024-03-07T01:20:36;15.97;;;11.87;;
19525;SDS011;9907;42.676;26.348;2024-03-07T01:23:01;13.77;;;10.93;;
19525;SDS011;9907;42.676;26.348;2024-03-07T01:25:26;17.27;;;12.20;;
19525;SDS011;9907;42.676;26.348;2024-03-07T01:27:52;16.07;;;12.37;;
19525;SDS011;9907;42.676;26.348;2024-03-07T01:30:17;14.93;;;12.00;;
19525;SDS011;9907;42.676;26.348;2024-03-07T01:32:43;15.53;;;11.83;;
19525;SDS011;9907;42.676;26.348;2024-03-07T01:35:08;20.17;;;12.93;;
19525;SDS011;9907;42.676;26.348;2024-03-07T01:37:35;19.30;;;12.90;;
19525;SDS011;9907;42.676;26.348;2024-03-07T01:40:01;16.47;;;12.07;;
19525;SDS011;9907;42.676;26.348;2024-03-07T01:42:28;19.53;;;12.50;;
19525;SDS011;9907;42.676;26.348;2024-03-07T01:44:53;15.40;;;11.90;;
19525;SDS011;9907;42.676;26.348;2024-03-07T01:47:19;15.50;;;12.10;;
19525;SDS011;9907;42.676;26.348;2024-03-07T01:49:44;16.67;;;12.07;;
19525;SDS011;9907;42.676;26.348;2024-03-07T01:52:10;16.33;;;12.97;;
19525;SDS011;9907;42.676;26.348;2024-03-07T01:54:37;16.90;;;13.27;;
19525;SDS011;9907;42.676;26.348;2024-03-07T01:57:04;16.40;;;13.30;;
19525;SDS011;9907;42.676;26.348;2024-03-07T01:59:30;16.63;;;12.40;;
19525;SDS011;9907;42.676;26.348;2024-03-07T02:01:57;14.97;;;11.57;;
19525;SDS011;9907;42.676;26.348;2024-03-07T02:04:24;15.83;;;12.33;;
19525;SDS011;9907;42.676;26.348;2024-03-07T02:06:50;18.53;;;12.57;;
19525;SDS011;9907;42.676;26.348;2024-03-07T02:09:21;16.67;;;12.53;;
19525;SDS011;9907;42.676;26.348;2024-03-07T02:11:47;18.80;;;13.43;;
19525;SDS011;9907;42.676;26.348;2024-03-07T02:14:14;18.80;;;12.80;;
19525;SDS011;9907;42.676;26.348;2024-03-07T02:16:39;14.60;;;12.53;;
19525;SDS011;9907;42.676;26.348;2024-03-07T02:19:05;17.77;;;13.93;;
19525;SDS011;9907;42.676;26.348;2024-03-07T02:21:31;19.67;;;12.37;;
19525;SDS011;9907;42.676;26.348;2024-03-07T02:23:58;17.87;;;13.30;;
19525;SDS011;9907;42.676;26.348;2024-03-07T02:26:24;17.40;;;13.63;;
19525;SDS011;9907;42.676;26.348;2024-03-07T02:28:50;16.53;;;13.30;;
19525;SDS011;9907;42.676;26.348;2024-03-07T02:31:15;14.70;;;12.70;;
19525;SDS011;9907;42.676;26.348;2024-03-07T02:33:41;16.90;;;13.17;;
19525;SDS011;9907;42.676;26.348;2024-03-07T02:36:07;16.13;;;13.50;;
19525;SDS011;9907;42.676;26.348;2024-03-07T02:38:32;15.93;;;12.93;;
19525;SDS011;9907;42.676;26.348;2024-03-07T02:40:59;16.43;;;13.13;;
19525;SDS011;9907;42.676;26.348;2024-03-07T02:43:25;16.93;;;13.13;;
19525;SDS011;9907;42.676;26.348;2024-03-07T02:45:50;19.50;;;13.00;;
19525;SDS011;9907;42.676;26.348;2024-03-07T02:48:15;20.77;;;12.67;;
19525;SDS011;9907;42.676;26.348;2024-03-07T02:50:43;19.03;;;12.53;;
19525;SDS011;9907;42.676;26.348;2024-03-07T02:53:09;19.03;;;13.23;;
19525;SDS011;9907;42.676;26.348;2024-03-07T02:55:34;16.87;;;12.00;;
19525;SDS011;9907;42.676;26.348;2024-03-07T02:58:00;14.70;;;12.10;;
19525;SDS011;9907;42.676;26.348;2024-03-07T03:00:25;16.53;;;13.33;;
19525;SDS011;9907;42.676;26.348;2024-03-07T03:02:51;17.00;;;13.47;;
19525;SDS011;9907;42.676;26.348;2024-03-07T03:05:23;17.50;;;12.67;;
19525;SDS011;9907;42.676;26.348;2024-03-07T03:07:49;14.57;;;12.17;;
19525;SDS011;9907;42.676;26.348;2024-03-07T03:10:25;15.77;;;13.40;;
19525;SDS011;9907;42.676;26.348;2024-03-07T03:12:54;16.03;;;13.53;;
19525;SDS011;9907;42.676;26.348;2024-03-07T03:15:25;15.83;;;12.67;;
19525;SDS011;9907;42.676;26.348;2024-03-07T03:17:52;17.93;;;12.97;;
19525;SDS011;9907;42.676;26.348;2024-03-07T03:20:18;15.67;;;12.90;;
19525;SDS011;9907;42.676;26.348;2024-03-07T03:23:12;14.80;;;12.23;;
19525;SDS011;9907;42.676;26.348;2024-03-07T03:25:38;17.57;;;12.50;;
19525;SDS011;9907;42.676;26.348;2024-03-07T03:28:05;16.10;;;12.80;;
19525;SDS011;9907;42.676;26.348;2024-03-07T03:30:31;15.93;;;13.13;;
19525;SDS011;9907;42.676;26.348;2024-03-07T03:32:58;19.23;;;13.23;;
19525;SDS011;9907;42.676;26.348;2024-03-07T03:35:23;16.93;;;13.30;;
19525;SDS011;9907;42.676;26.348;2024-03-07T03:37:49;18.47;;;13.20;;
19525;SDS011;9907;42.676;26.348;2024-03-07T03:40:15;19.73;;;13.77;;
19525;SDS011;9907;42.676;26.348;2024-03-07T03:42:41;14.10;;;12.37;;
19525;SDS011;9907;42.676;26.348;2024-03-07T03:45:07;15.87;;;12.53;;
19525;SDS011;9907;42.676;26.348;2024-03-07T03:47:37;16.27;;;12.83;;
19525;SDS011;9907;42.676;26.348;2024-03-07T03:50:06;13.60;;;12.13;;
19525;SDS011;9907;42.676;26.348;2024-03-07T03:52:33;22.90;;;12.80;;
19525;SDS011;9907;42.676;26.348;2024-03-07T03:55:00;14.63;;;12.17;;
19525;SDS011;9907;42.676;26.348;2024-03-07T03:57:28;16.03;;;12.23;;
19525;SDS011;9907;42.676;26.348;2024-03-07T03:59:54;16.30;;;12.63;;
19525;SDS011;9907;42.676;26.348;2024-03-07T04:02:21;17.60;;;13.13;;
19525;SDS011;9907;42.676;26.348;2024-03-07T04:04:50;17.30;;;12.57;;
19525;SDS011;9907;42.676;26.348;2024-03-07T04:07:19;19.57;;;14.20;;
19525;SDS011;9907;42.676;26.348;2024-03-07T04:09:44;23.93;;;14.57;;
19525;SDS011;9907;42.676;26.348;2024-03-07T04:12:11;22.07;;;14.63;;
19525;SDS011;9907;42.676;26.348;2024-03-07T04:14:40;18.70;;;13.83;;
19525;SDS011;9907;42.676;26.348;2024-03-07T04:17:07;18.27;;;13.50;;
19525;SDS011;9907;42.676;26.348;2024-03-07T04:19:34;17.73;;;13.23;;
19525;SDS011;9907;42.676;26.348;2024-03-07T04:22:01;16.87;;;13.50;;
19525;SDS011;9907;42.676;26.348;2024-03-07T04:24:28;19.40;;;14.43;;
19525;SDS011;9907;42.676;26.348;2024-03-07T04:26:58;18.80;;;13.90;;
19525;SDS011;9907;42.676;26.348;2024-03-07T04:29:29;18.07;;;13.83;;
19525;SDS011;9907;42.676;26.348;2024-03-07T04:31:56;21.43;;;13.50;;
19525;SDS011;9907;42.676;26.348;2024-03-07T04:34:22;21.83;;;13.80;;
19525;SDS011;9907;42.676;26.348;2024-03-07T04:36:48;11.50;;;9.60;;
19525;SDS011;9907;42.676;26.348;2024-03-07T04:39:13;17.03;;;13.87;;
19525;SDS011;9907;42.676;26.348;2024-03-07T04:42:01;18.40;;;13.23;;
19525;SDS011;9907;42.676;26.348;2024-03-07T04:44:27;19.70;;;13.77;;
19525;SDS011;9907;42.676;26.348;2024-03-07T04:46:54;17.73;;;12.90;;
19525;SDS011;9907;42.676;26.348;2024-03-07T04:49:29;18.73;;;13.67;;
19525;SDS011;9907;42.676;26.348;2024-03-07T04:51:56;18.23;;;12.97;;
19525;SDS011;9907;42.676;26.348;2024-03-07T04:54:23;16.33;;;13.03;;
19525;SDS011;9907;42.676;26.348;2024-03-07T04:56:50;20.70;;;13.67;;
19525;SDS011;9907;42.676;26.348;2024-03-07T04:59:16;18.13;;;13.50;;
19525;SDS011;9907;42.676;26.348;2024-03-07T05:01:44;22.30;;;15.00;;
19525;SDS011;9907;42.676;26.348;2024-03-07T05:04:11;17.10;;;14.10;;
19525;SDS011;9907;42.676;26.348;2024-03-07T05:06:38;21.10;;;14.37;;
19525;SDS011;9907;42.676;26.348;2024-03-07T05:09:05;18.00;;;14.10;;
19525;SDS011;9907;42.676;26.348;2024-03-07T05:11:33;16.77;;;13.37;;
19525;SDS011;9907;42.676;26.348;2024-03-07T05:13:59;19.77;;;14.87;;
19525;SDS011;9907;42.676;26.348;2024-03-07T05:16:25;18.90;;;13.90;;
19525;SDS011;9907;42.676;26.348;2024-03-07T05:18:54;21.27;;;14.80;;
19525;SDS011;9907;42.676;26.348;2024-03-07T05:21:24;20.73;;;13.87;;
19525;SDS011;9907;42.676;26.348;2024-03-07T05:24:05;20.73;;;14.17;;
19525;SDS011;9907;42.676;26.348;2024-03-07T05:26:35;19.90;;;13.53;;
19525;SDS011;9907;42.676;26.348;2024-03-07T05:29:10;19.97;;;15.07;;
19525;SDS011;9907;42.676;26.348;2024-03-07T05:31:39;21.03;;;13.40;;
19525;SDS011;9907;42.676;26.348;2024-03-07T05:34:14;21.40;;;14.23;;
19525;SDS011;9907;42.676;26.348;2024-03-07T05:36:44;19.73;;;14.23;;
19525;SDS011;9907;42.676;26.348;2024-03-07T05:39:11;19.60;;;14.63;;
19525;SDS011;9907;42.676;26.348;2024-03-07T05:41:42;20.77;;;14.00;;
19525;SDS011;9907;42.676;26.348;2024-03-07T05:44:10;20.87;;;14.03;;
19525;SDS011;9907;42.676;26.348;2024-03-07T05:46:36;19.63;;;13.67;;
19525;SDS011;9907;42.676;26.348;2024-03-07T05:49:06;18.40;;;14.67;;
19525;SDS011;9907;42.676;26.348;2024-03-07T05:51:32;15.57;;;12.63;;
19525;SDS011;9907;42.676;26.348;2024-03-07T05:53:57;19.27;;;14.07;;
19525;SDS011;9907;42.676;26.348;2024-03-07T05:56:22;19.10;;;13.50;;
19525;SDS011;9907;42.676;26.348;2024-03-07T05:58:49;17.67;;;13.67;;
19525;SDS011;9907;42.676;26.348;2024-03-07T06:01:16;19.13;;;13.80;;
19525;SDS011;9907;42.676;26.348;2024-03-07T06:03:43;20.70;;;14.23;;
19525;SDS011;9907;42.676;26.348;2024-03-07T06:06:09;19.93;;;14.53;;
19525;SDS011;9907;42.676;26.348;2024-03-07T06:08:36;20.20;;;13.50;;
19525;SDS011;9907;42.676;26.348;2024-03-07T06:11:03;20.23;;;13.80;;
19525;SDS011;9907;42.676;26.348;2024-03-07T06:13:28;17.93;;;13.40;;
19525;SDS011;9907;42.676;26.348;2024-03-07T06:15:54;16.90;;;13.97;;
19525;SDS011;9907;42.676;26.348;2024-03-07T06:18:19;19.57;;;13.77;;
19525;SDS011;9907;42.676;26.348;2024-03-07T06:20:46;17.43;;;14.17;;
19525;SDS011;9907;42.676;26.348;2024-03-07T06:23:22;16.30;;;13.10;;
19525;SDS011;9907;42.676;26.348;2024-03-07T06:25:47;18.13;;;14.33;;
19525;SDS011;9907;42.676;26.348;2024-03-07T06:28:15;20.40;;;14.60;;
19525;SDS011;9907;42.676;26.348;2024-03-07T06:30:45;18.70;;;15.30;;
19525;SDS011;9907;42.676;26.348;2024-03-07T06:33:11;22.43;;;15.20;;
19525;SDS011;9907;42.676;26.348;2024-03-07T06:35:38;21.87;;;15.10;;
19525;SDS011;9907;42.676;26.348;2024-03-07T06:38:06;19.53;;;14.93;;
19525;SDS011;9907;42.676;26.348;2024-03-07T06:40:33;22.20;;;15.27;;
19525;SDS011;9907;42.676;26.348;2024-03-07T06:43:02;17.83;;;14.77;;
19525;SDS011;9907;42.676;26.348;2024-03-07T06:45:37;20.47;;;14.70;;
19525;SDS011;9907;42.676;26.348;2024-03-07T06:48:06;18.53;;;14.40;;
19525;SDS011;9907;42.676;26.348;2024-03-07T06:50:33;24.47;;;15.93;;
19525;SDS011;9907;42.676;26.348;2024-03-07T06:52:59;20.03;;;15.23;;
19525;SDS011;9907;42.676;26.348;2024-03-07T06:55:25;21.67;;;15.90;;
19525;SDS011;9907;42.676;26.348;2024-03-07T06:57:52;21.00;;;14.87;;
19525;SDS011;9907;42.676;26.348;2024-03-07T07:00:18;18.27;;;14.40;;
19525;SDS011;9907;42.676;26.348;2024-03-07T07:02:45;21.67;;;15.73;;
19525;SDS011;9907;42.676;26.348;2024-03-07T07:05:11;17.10;;;13.90;;
19525;SDS011;9907;42.676;26.348;2024-03-07T07:07:37;19.60;;;14.00;;
19525;SDS011;9907;42.676;26.348;2024-03-07T07:10:04;20.10;;;15.27;;
19525;SDS011;9907;42.676;26.348;2024-03-07T07:12:33;18.17;;;14.80;;
19525;SDS011;9907;42.676;26.348;2024-03-07T07:15:00;18.40;;;13.43;;
19525;SDS011;9907;42.676;26.348;2024-03-07T07:17:25;18.33;;;13.20;;
19525;SDS011;9907;42.676;26.348;2024-03-07T07:19:54;18.87;;;13.33;;
19525;SDS011;9907;42.676;26.348;2024-03-07T07:22:21;18.93;;;13.67;;
19525;SDS011;9907;42.676;26.348;2024-03-07T07:24:46;18.27;;;12.70;;
19525;SDS011;9907;42.676;26.348;2024-03-07T07:27:12;19.20;;;11.80;;
19525;SDS011;9907;42.676;26.348;2024-03-07T07:29:37;19.37;;;12.83;;
19525;SDS011;9907;42.676;26.348;2024-03-07T07:32:03;15.30;;;12.60;;
19525;SDS011;9907;42.676;26.348;2024-03-07T07:34:28;17.17;;;12.10;;
19525;SDS011;9907;42.676;26.348;2024-03-07T07:36:55;19.30;;;12.07;;
19525;SDS011;9907;42.676;26.348;2024-03-07T07:39:21;13.03;;;11.60;;
19525;SDS011;9907;42.676;26.348;2024-03-07T07:41:46;17.43;;;11.77;;
19525;SDS011;9907;42.676;26.348;2024-03-07T07:44:12;15.50;;;11.10;;
19525;SDS011;9907;42.676;26.348;2024-03-07T07:46:38;17.33;;;11.80;;
19525;SDS011;9907;42.676;26.348;2024-03-07T07:49:05;16.27;;;11.03;;
19525;SDS011;9907;42.676;26.348;2024-03-07T07:51:31;12.10;;;10.87;;
19525;SDS011;9907;42.676;26.348;2024-03-07T07:53:56;13.20;;;10.87;;
19525;SDS011;9907;42.676;26.348;2024-03-07T07:56:22;18.77;;;11.40;;
19525;SDS011;9907;42.676;26.348;2024-03-07T07:58:49;15.27;;;10.77;;
19525;SDS011;9907;42.676;26.348;2024-03-07T08:01:14;18.03;;;11.33;;
19525;SDS011;9907;42.676;26.348;2024-03-07T08:03:42;15.37;;;10.53;;
19525;SDS011;9907;42.676;26.348;2024-03-07T08:06:08;16.90;;;12.67;;
19525;SDS011;9907;42.676;26.348;2024-03-07T08:08:34;18.13;;;11.40;;
19525;SDS011;9907;42.676;26.348;2024-03-07T08:10:59;15.77;;;12.27;;
19525;SDS011;9907;42.676;26.348;2024-03-07T08:13:26;16.37;;;12.37;;
19525;SDS011;9907;42.676;26.348;2024-03-07T08:15:52;16.93;;;13.20;;
19525;SDS011;9907;42.676;26.348;2024-03-07T08:18:19;21.00;;;13.73;;
19525;SDS011;9907;42.676;26.348;2024-03-07T08:20:45;20.70;;;12.30;;
19525;SDS011;9907;42.676;26.348;2024-03-07T08:23:10;17.80;;;12.93;;
19525;SDS011;9907;42.676;26.348;2024-03-07T08:25:37;16.90;;;12.83;;
19525;SDS011;9907;42.676;26.348;2024-03-07T08:28:05;15.93;;;12.00;;
19525;SDS011;9907;42.676;26.348;2024-03-07T08:30:33;13.60;;;10.80;;
19525;SDS011;9907;42.676;26.348;2024-03-07T08:33:00;15.50;;;11.50;;
19525;SDS011;9907;42.676;26.348;2024-03-07T08:35:28;15.63;;;11.77;;
19525;SDS011;9907;42.676;26.348;2024-03-07T08:37:56;13.20;;;10.93;;
19525;SDS011;9907;42.676;26.348;2024-03-07T08:42:50;15.80;;;11.57;;
19525;SDS011;9907;42.676;26.348;2024-03-07T08:45:17;16.00;;;12.03;;
19525;SDS011;9907;42.676;26.348;2024-03-07T08:47:44;22.20;;;14.33;;
19525;SDS011;9907;42.676;26.348;2024-03-07T08:50:11;18.73;;;12.23;;
19525;SDS011;9907;42.676;26.348;2024-03-07T08:52:38;20.67;;;15.43;;
19525;SDS011;9907;42.676;26.348;2024-03-07T08:55:05;28.33;;;18.67;;
19525;SDS011;9907;42.676;26.348;2024-03-07T08:57:35;17.27;;;12.23;;
19525;SDS011;9907;42.676;26.348;2024-03-07T09:00:07;15.00;;;10.97;;
19525;SDS011;9907;42.676;26.348;2024-03-07T09:02:34;18.97;;;12.43;;
19525;SDS011;9907;42.676;26.348;2024-03-07T09:05:01;14.57;;;12.27;;
19525;SDS011;9907;42.676;26.348;2024-03-07T09:07:27;14.53;;;12.50;;
19525;SDS011;9907;42.676;26.348;2024-03-07T09:09:54;16.33;;;12.00;;
19525;SDS011;9907;42.676;26.348;2024-03-07T09:12:20;13.27;;;11.40;;
19525;SDS011;9907;42.676;26.348;2024-03-07T09:14:45;17.47;;;11.70;;
19525;SDS011;9907;42.676;26.348;2024-03-07T09:17:11;17.37;;;11.60;;
19525;SDS011;9907;42.676;26.348;2024-03-07T09:19:37;14.80;;;11.90;;
19525;SDS011;9907;42.676;26.348;2024-03-07T09:22:03;16.40;;;11.40;;
19525;SDS011;9907;42.676;26.348;2024-03-07T09:24:30;15.57;;;10.90;;
19525;SDS011;9907;42.676;26.348;2024-03-07T09:26:56;15.50;;;12.03;;
19525;SDS011;9907;42.676;26.348;2024-03-07T09:29:23;16.40;;;11.97;;
19525;SDS011;9907;42.676;26.348;2024-03-07T09:31:49;13.90;;;11.53;;
19525;SDS011;9907;42.676;26.348;2024-03-07T09:34:17;16.50;;;11.70;;
19525;SDS011;9907;42.676;26.348;2024-03-07T09:36:44;13.87;;;11.47;;
19525;SDS011;9907;42.676;26.348;2024-03-07T09:39:09;19.03;;;11.60;;
19525;SDS011;9907;42.676;26.348;2024-03-07T09:41:37;15.13;;;11.23;;
19525;SDS011;9907;42.676;26.348;2024-03-07T09:44:04;18.63;;;12.33;;
19525;SDS011;9907;42.676;26.348;2024-03-07T09:46:30;16.87;;;11.83;;
19525;SDS011;9907;42.676;26.348;2024-03-07T09:48:56;14.60;;;11.90;;
19525;SDS011;9907;42.676;26.348;2024-03-07T09:51:23;15.07;;;12.97;;
19525;SDS011;9907;42.676;26.348;2024-03-07T09:53:49;19.47;;;12.80;;
19525;SDS011;9907;42.676;26.348;2024-03-07T09:56:22;17.13;;;13.13;;
19525;SDS011;9907;42.676;26.348;2024-03-07T09:58:51;16.87;;;12.10;;
19525;SDS011;9907;42.676;26.348;2024-03-07T10:01:22;15.93;;;12.73;;
19525;SDS011;9907;42.676;26.348;2024-03-07T10:03:57;15.67;;;12.67;;
19525;SDS011;9907;42.676;26.348;2024-03-07T10:06:26;16.27;;;12.43;;
19525;SDS011;9907;42.676;26.348;2024-03-07T10:08:54;17.10;;;12.47;;
19525;SDS011;9907;42.676;26.348;2024-03-07T10:11:20;20.30;;;13.73;;
19525;SDS011;9907;42.676;26.348;2024-03-07T10:13:46;17.87;;;15.10;;
19525;SDS011;9907;42.676;26.348;2024-03-07T10:16:15;17.70;;;13.37;;
19525;SDS011;9907;42.676;26.348;2024-03-07T10:18:43;21.37;;;14.00;;
19525;SDS011;9907;42.676;26.348;2024-03-07T10:21:10;18.20;;;13.83;;
19525;SDS011;9907;42.676;26.348;2024-03-07T10:23:36;17.90;;;14.33;;
19525;SDS011;9907;42.676;26.348;2024-03-07T10:26:01;20.47;;;15.63;;
19525;SDS011;9907;42.676;26.348;2024-03-07T10:28:29;27.30;;;17.33;;
19525;SDS011;9907;42.676;26.348;2024-03-07T10:30:56;27.07;;;23.00;;
19525;SDS011;9907;42.676;26.348;2024-03-07T10:33:21;27.90;;;22.63;;
19525;SDS011;9907;42.676;26.348;2024-03-07T10:35:52;26.90;;;22.40;;
19525;SDS011;9907;42.676;26.348;2024-03-07T10:38:18;29.97;;;23.53;;
19525;SDS011;9907;42.676;26.348;2024-03-07T10:40:47;28.60;;;21.83;;
19525;SDS011;9907;42.676;26.348;2024-03-07T10:43:18;27.37;;;20.90;;
19525;SDS011;9907;42.676;26.348;2024-03-07T10:45:45;21.33;;;17.80;;
19525;SDS011;9907;42.676;26.348;2024-03-07T10:48:12;19.07;;;14.90;;
19525;SDS011;9907;42.676;26.348;2024-03-07T10:50:41;21.77;;;14.87;;
19525;SDS011;9907;42.676;26.348;2024-03-07T10:58:36;22.33;;;17.20;;
19525;SDS011;9907;42.676;26.348;2024-03-07T11:01:07;26.13;;;19.63;;
19525;SDS011;9907;42.676;26.348;2024-03-07T11:03:36;23.87;;;19.47;;
19525;SDS011;9907;42.676;26.348;2024-03-07T11:06:02;22.70;;;17.77;;
19525;SDS011;9907;42.676;26.348;2024-03-07T11:08:34;24.07;;;17.27;;
19525;SDS011;9907;42.676;26.348;2024-03-07T11:11:01;22.37;;;17.57;;
19525;SDS011;9907;42.676;26.348;2024-03-07T11:13:27;20.87;;;17.97;;
19525;SDS011;9907;42.676;26.348;2024-03-07T11:15:55;22.23;;;17.23;;
19525;SDS011;9907;42.676;26.348;2024-03-07T11:18:23;22.27;;;16.80;;
19525;SDS011;9907;42.676;26.348;2024-03-07T11:20:52;22.03;;;16.23;;
19525;SDS011;9907;42.676;26.348;2024-03-07T11:25:55;21.47;;;17.07;;
19525;SDS011;9907;42.676;26.348;2024-03-07T11:28:29;19.50;;;16.30;;
19525;SDS011;9907;42.676;26.348;2024-03-07T11:31:06;22.73;;;15.90;;
19525;SDS011;9907;42.676;26.348;2024-03-07T11:36:44;19.40;;;16.90;;
19525;SDS011;9907;42.676;26.348;2024-03-07T11:42:23;20.93;;;16.03;;
19525;SDS011;9907;42.676;26.348;2024-03-07T11:44:53;21.30;;;16.97;;
19525;SDS011;9907;42.676;26.348;2024-03-07T11:47:25;22.97;;;17.77;;
19525;SDS011;9907;42.676;26.348;2024-03-07T11:49:55;22.60;;;17.97;;
19525;SDS011;9907;42.676;26.348;2024-03-07T11:52:23;24.83;;;18.50;;
19525;SDS011;9907;42.676;26.348;2024-03-07T11:54:52;22.47;;;17.77;;
19525;SDS011;9907;42.676;26.348;2024-03-07T11:57:18;22.87;;;17.40;;
19525;SDS011;9907;42.676;26.348;2024-03-07T11:59:47;21.80;;;17.23;;
19525;SDS011;9907;42.676;26.348;2024-03-07T12:02:17;78.17;;;24.23;;
19525;SDS011;9907;42.676;26.348;2024-03-07T12:04:46;27.73;;;18.60;;
19525;SDS011;9907;42.676;26.348;2024-03-07T12:07:15;24.40;;;18.40;;
19525;SDS011;9907;42.676;26.348;2024-03-07T12:09:43;23.83;;;18.47;;
19525;SDS011;9907;42.676;26.348;2024-03-07T12:12:15;24.50;;;19.63;;
19525;SDS011;9907;42.676;26.348;2024-03-07T12:14:42;27.30;;;19.73;;
19525;SDS011;9907;42.676;26.348;2024-03-07T12:17:08;27.30;;;20.33;;
19525;SDS011;9907;42.676;26.348;2024-03-07T12:19:34;25.80;;;19.73;;
19525;SDS011;9907;42.676;26.348;2024-03-07T12:22:00;25.47;;;19.10;;
19525;SDS011;9907;42.676;26.348;2024-03-07T12:24:27;25.17;;;18.87;;
19525;SDS011;9907;42.676;26.348;2024-03-07T12:27:15;24.40;;;18.97;;
19525;SDS011;9907;42.676;26.348;2024-03-07T12:29:41;25.40;;;19.03;;
19525;SDS011;9907;42.676;26.348;2024-03-07T12:32:13;28.53;;;19.90;;
19525;SDS011;9907;42.676;26.348;2024-03-07T12:34:39;28.60;;;20.07;;
19525;SDS011;9907;42.676;26.348;2024-03-07T12:37:10;25.30;;;19.70;;
19525;SDS011;9907;42.676;26.348;2024-03-07T12:39:41;26.73;;;18.73;;
19525;SDS011;9907;42.676;26.348;2024-03-07T12:42:19;26.90;;;19.00;;
19525;SDS011;9907;42.676;26.348;2024-03-07T12:44:46;28.47;;;19.33;;
19525;SDS011;9907;42.676;26.348;2024-03-07T12:47:12;27.80;;;19.07;;
19525;SDS011;9907;42.676;26.348;2024-03-07T12:49:42;24.37;;;17.77;;
19525;SDS011;9907;42.676;26.348;2024-03-07T12:52:12;27.37;;;19.10;;
19525;SDS011;9907;42.676;26.348;2024-03-07T12:54:41;37.20;;;21.37;;
19525;SDS011;9907;42.676;26.348;2024-03-07T12:57:07;49.33;;;24.77;;
19525;SDS011;9907;42.676;26.348;2024-03-07T12:59:34;35.60;;;20.93;;
19525;SDS011;9907;42.676;26.348;2024-03-07T13:02:03;23.63;;;18.47;;
19525;SDS011;9907;42.676;26.348;2024-03-07T13:04:31;23.17;;;17.23;;
19525;SDS011;9907;42.676;26.348;2024-03-07T13:06:57;21.97;;;16.53;;
19525;SDS011;9907;42.676;26.348;2024-03-07T13:09:25;22.20;;;17.40;;
19525;SDS011;9907;42.676;26.348;2024-03-07T13:11:55;21.37;;;16.67;;
19525;SDS011;9907;42.676;26.348;2024-03-07T13:14:22;21.10;;;15.80;;
19525;SDS011;9907;42.676;26.348;2024-03-07T13:16:48;23.30;;;17.67;;
19525;SDS011;9907;42.676;26.348;2024-03-07T13:19:15;26.60;;;17.23;;
19525;SDS011;9907;42.676;26.348;2024-03-07T13:21:46;21.20;;;16.13;;
19525;SDS011;9907;42.676;26.348;2024-03-07T13:24:13;22.00;;;16.60;;
19525;SDS011;9907;42.676;26.348;2024-03-07T13:26:45;25.27;;;18.57;;
19525;SDS011;9907;42.676;26.348;2024-03-07T13:29:13;23.50;;;18.17;;
19525;SDS011;9907;42.676;26.348;2024-03-07T13:31:39;23.53;;;18.30;;
19525;SDS011;9907;42.676;26.348;2024-03-07T13:34:07;25.53;;;17.60;;
19525;SDS011;9907;42.676;26.348;2024-03-07T13:36:38;21.77;;;17.73;;
19525;SDS011;9907;42.676;26.348;2024-03-07T13:39:10;26.77;;;17.37;;
19525;SDS011;9907;42.676;26.348;2024-03-07T13:41:38;21.33;;;18.03;;
19525;SDS011;9907;42.676;26.348;2024-03-07T13:44:06;24.83;;;19.17;;
19525;SDS011;9907;42.676;26.348;2024-03-07T13:46:32;22.90;;;17.17;;
19525;SDS011;9907;42.676;26.348;2024-03-07T13:49:02;20.43;;;16.07;;
19525;SDS011;9907;42.676;26.348;2024-03-07T13:51:42;22.73;;;17.03;;
19525;SDS011;9907;42.676;26.348;2024-03-07T13:54:28;18.47;;;15.80;;
19525;SDS011;9907;42.676;26.348;2024-03-07T14:05:58;18.33;;;15.27;;
19525;SDS011;9907;42.676;26.348;2024-03-07T14:14:41;20.40;;;14.03;;
19525;SDS011;9907;42.676;26.348;2024-03-07T14:23:14;22.10;;;15.63;;
19525;SDS011;9907;42.676;26.348;2024-03-07T14:26:01;18.77;;;15.43;;
19525;SDS011;9907;42.676;26.348;2024-03-07T14:31:06;21.67;;;16.83;;
19525;SDS011;9907;42.676;26.348;2024-03-07T14:36:53;22.87;;;16.67;;
19525;SDS011;9907;42.676;26.348;2024-03-07T14:39:22;23.87;;;16.87;;
19525;SDS011;9907;42.676;26.348;2024-03-07T14:44:19;23.10;;;18.57;;
19525;SDS011;9907;42.676;26.348;2024-03-07T14:46:54;23.07;;;17.33;;
19525;SDS011;9907;42.676;26.348;2024-03-07T14:49:24;21.30;;;16.93;;
19525;SDS011;9907;42.676;26.348;2024-03-07T14:51:50;38.90;;;18.60;;
19525;SDS011;9907;42.676;26.348;2024-03-07T14:54:19;18.83;;;16.10;;
19525;SDS011;9907;42.676;26.348;2024-03-07T14:56:46;29.43;;;17.67;;
19525;SDS011;9907;42.676;26.348;2024-03-07T14:59:12;22.73;;;16.63;;
19525;SDS011;9907;42.676;26.348;2024-03-07T15:01:41;24.30;;;16.80;;
19525;SDS011;9907;42.676;26.348;2024-03-07T15:04:08;18.50;;;16.37;;
19525;SDS011;9907;42.676;26.348;2024-03-07T15:06:39;21.60;;;16.63;;
19525;SDS011;9907;42.676;26.348;2024-03-07T15:09:05;20.37;;;16.83;;
19525;SDS011;9907;42.676;26.348;2024-03-07T15:11:37;21.97;;;17.23;;